Time;durP1;ratioP1;P1;durP2;ratioP2;P2;SDS_P1;SDS_P2;PMS_P1;PMS_P2;Temp;Humidity;BMP_temperature;BMP_pressure;BME280_temperature;BME280_humidity;BME280_pressure;Samples;Min_cycle;Max_cycle;Signal;HPM_P1;HPM_P2
2021/03/09 00:00:13;;;;;;;4.55;3.47;;;;;;;-0.49;71.97;100699.36;1775744;80;21054;-81
2021/03/09 00:02:41;;;;;;;7.15;4.15;;;;;;;-0.47;72.01;100696.33;1775769;80;22162;-81
2021/03/09 00:05:11;;;;;;;4.35;3.40;;;;;;;-0.48;72.18;100693.34;1775837;80;20947;-81
2021/03/09 00:07:41;;;;;;;4.50;3.22;;;;;;;-0.47;72.25;100698.91;1775513;80;20947;-81
2021/03/09 00:10:14;;;;;;;4.40;3.87;;;;;;;-0.54;72.50;100699.86;1775413;80;20920;-80
2021/03/09 00:12:42;;;;;;;4.62;2.98;;;;;;;-0.54;72.86;100703.28;1775449;80;21002;-81
2021/03/09 00:15:12;;;;;;;5.60;4.00;;;;;;;-0.49;72.94;100695.08;1775356;80;22301;-82
2021/03/09 00:17:40;;;;;;;5.35;3.62;;;;;;;-0.42;72.76;100703.58;1775059;80;20955;-80
2021/03/09 00:20:13;;;;;;;4.72;3.55;;;;;;;-0.39;72.63;100703.52;1775017;80;21030;-81
2021/03/09 00:22:41;;;;;;;3.95;3.37;;;;;;;-0.37;72.34;100703.07;1775258;80;20937;-80
2021/03/09 00:25:11;;;;;;;4.15;3.17;;;;;;;-0.40;72.23;100706.98;1775362;80;20943;-80
2021/03/09 00:27:39;;;;;;;3.87;2.27;;;;;;;-0.39;71.44;100704.81;1775479;80;21414;-77
2021/03/09 00:30:09;;;;;;;2.20;2.05;;;;;;;-0.48;70.66;100705.78;1777001;80;21346;-79
2021/03/09 00:32:37;;;;;;;1.85;1.75;;;;;;;-0.53;70.32;100702.88;1775656;80;20962;-78
2021/03/09 00:35:07;;;;;;;1.70;1.37;;;;;;;-0.59;70.43;100702.50;1775097;80;21480;-81
2021/03/09 00:37:35;;;;;;;1.87;1.60;;;;;;;-0.64;69.84;100702.56;1775098;80;20959;-81
2021/03/09 00:40:05;;;;;;;1.22;1.00;;;;;;;-0.68;69.81;100702.17;1775149;80;21866;-81
2021/03/09 00:42:34;;;;;;;3.22;1.52;;;;;;;-0.70;69.14;100701.34;1775121;80;21022;-81
2021/03/09 00:45:02;;;;;;;1.50;0.98;;;;;;;-0.77;69.07;100704.87;1775175;80;21054;-80
2021/03/09 00:47:30;;;;;;;2.08;1.10;;;;;;;-0.80;68.72;100702.34;1775016;80;20997;-81
2021/03/09 00:49:59;;;;;;;1.25;0.70;;;;;;;-0.86;68.29;100696.82;1775199;80;20951;-81
2021/03/09 00:52:27;;;;;;;2.05;0.80;;;;;;;-0.92;67.90;100703.31;1775056;80;21208;-81
2021/03/09 00:54:55;;;;;;;22.15;3.47;;;;;;;-1.00;68.09;100706.44;1774880;79;20963;-80
2021/03/09 00:57:22;;;;;;;1.10;1.00;;;;;;;-1.04;67.27;100699.61;1775034;80;21006;-81
2021/03/09 00:59:50;;;;;;;0.57;0.50;;;;;;;-1.12;67.28;100697.55;1775575;80;21410;-80
2021/03/09 01:02:18;;;;;;;0.65;0.53;;;;;;;-1.21;67.56;100699.78;1775457;80;21476;-80
2021/03/09 01:04:47;;;;;;;0.72;0.72;;;;;;;-1.28;67.90;100707.99;1775162;80;21822;-80
2021/03/09 01:07:15;;;;;;;1.42;0.88;;;;;;;-1.29;67.59;100704.14;1775061;80;21129;-79
2021/03/09 01:09:43;;;;;;;1.30;1.05;;;;;;;-1.34;67.67;100704.19;1775361;80;20987;-81
2021/03/09 01:12:12;;;;;;;0.60;0.50;;;;;;;-1.44;67.76;100700.02;1775189;80;21935;-80
2021/03/09 01:14:41;;;;;;;2.47;0.75;;;;;;;-1.50;67.96;100708.63;1775256;80;21451;-79
2021/03/09 01:17:09;;;;;;;3.27;0.80;;;;;;;-1.53;67.94;100711.68;1775383;80;22335;-80
2021/03/09 01:19:37;;;;;;;0.98;0.55;;;;;;;-1.59;67.92;100716.87;1775176;80;20966;-80
2021/03/09 01:22:06;;;;;;;3.27;0.80;;;;;;;-1.62;68.18;100717.75;1775305;80;21003;-81
2021/03/09 01:24:33;;;;;;;1.40;0.72;;;;;;;-1.62;68.10;100728.03;1775111;80;21011;-82
2021/03/09 01:27:03;;;;;;;1.55;0.95;;;;;;;-1.67;68.06;100724.63;1775076;80;21047;-78
2021/03/09 01:29:30;;;;;;;1.02;0.60;;;;;;;-1.72;68.02;100724.66;1775113;80;22723;-80
2021/03/09 01:31:58;;;;;;;3.02;1.50;;;;;;;-1.76;67.63;100723.42;1775019;80;20955;-79
2021/03/09 01:34:26;;;;;;;1.92;1.55;;;;;;;-1.79;67.63;100726.02;1775047;80;20963;-77
2021/03/09 01:36:54;;;;;;;2.20;1.15;;;;;;;-1.86;67.59;100721.80;1775032;80;21011;-79
2021/03/09 01:42:11;;;;;;;1.10;1.00;;;;;;;-1.92;67.95;100724.81;1846160;76;22253;-80
2021/03/09 01:44:39;;;;;;;1.27;0.95;;;;;;;-1.97;67.67;100733.00;1818307;79;20970;-80
2021/03/09 01:47:07;;;;;;;2.15;0.95;;;;;;;-2.03;67.52;100730.90;1818167;79;21808;-81
2021/03/09 01:49:39;;;;;;;0.80;0.80;;;;;;;-2.10;67.60;100728.80;1818063;79;21057;-79
2021/03/09 01:52:10;;;;;;;1.57;1.05;;;;;;;-2.13;67.79;100738.67;1818310;79;20999;-80
2021/03/09 01:54:39;;;;;;;0.82;0.80;;;;;;;-2.17;67.71;100739.55;1818724;77;20951;-77
2021/03/09 01:57:09;;;;;;;1.22;1.00;;;;;;;-2.20;67.93;100746.41;1819038;79;21475;-79
2021/03/09 01:59:38;;;;;;;1.17;0.72;;;;;;;-2.26;67.83;100740.88;1818905;77;21177;-80
2021/03/09 02:02:07;;;;;;;1.65;1.55;;;;;;;-2.30;67.92;100744.33;1787410;79;21047;-81
2021/03/09 02:04:35;;;;;;;2.35;0.75;;;;;;;-2.34;68.30;100752.91;1818182;79;20899;-81
2021/03/09 02:07:03;;;;;;;1.02;0.80;;;;;;;-2.37;68.08;100747.36;1787011;79;21397;-86
2021/03/09 02:09:33;;;;;;;1.55;0.90;;;;;;;-2.40;68.29;100748.67;1818412;78;21337;-83
2021/03/09 02:12:12;;;;;;;1.10;1.10;;;;;;;-2.39;68.55;100752.08;1818202;77;22259;-84
2021/03/09 02:15:04;;;;;;;1.40;1.25;;;;;;;-2.37;68.55;100758.06;1818232;77;21002;-83
2021/03/09 02:17:55;;;;;;;4.12;1.12;;;;;;;-2.37;68.14;100759.34;1818128;77;21006;-80
2021/03/09 02:21:04;;;;;;;2.05;1.20;;;;;;;-2.41;68.50;100762.35;1803131;79;21041;-80
2021/03/09 02:24:09;;;;;;;1.20;1.10;;;;;;;-2.42;68.45;100773.50;1818441;79;21352;-81
2021/03/09 02:27:07;;;;;;;1.55;1.12;;;;;;;-2.46;68.43;100767.95;1818433;77;21875;-83
2021/03/09 02:29:44;;;;;;;3.45;1.37;;;;;;;-2.51;68.54;100775.67;1818185;78;20951;-82
2021/03/09 02:32:17;;;;;;;1.25;1.07;;;;;;;-2.52;68.75;100779.08;1818167;77;21053;-83
2021/03/09 02:34:48;;;;;;;1.57;1.32;;;;;;;-2.54;68.69;100779.95;1787144;79;21464;-84
2021/03/09 02:37:17;;;;;;;1.37;1.15;;;;;;;-2.57;68.76;100782.10;1817947;79;21025;-84
2021/03/09 02:39:46;;;;;;;1.75;1.10;;;;;;;-2.59;68.77;100788.95;1818153;79;21368;-82
2021/03/09 02:42:26;;;;;;;1.85;1.20;;;;;;;-2.62;68.87;100786.41;1780366;78;20902;-81
2021/03/09 02:44:59;;;;;;;2.12;1.50;;;;;;;-2.61;68.88;100782.97;1836105;78;20930;-85
2021/03/09 02:47:28;;;;;;;1.50;1.10;;;;;;;-2.62;69.15;100787.69;1836147;78;21052;-82
2021/03/09 02:49:56;;;;;;;1.47;1.32;;;;;;;-2.58;69.19;100790.67;1808748;78;20884;-83
2021/03/09 02:52:26;;;;;;;1.37;1.22;;;;;;;-2.60;69.09;100789.83;1835829;78;21187;-84
2021/03/09 02:54:54;;;;;;;1.45;1.20;;;;;;;-2.58;69.40;100798.38;1835756;78;20898;-84
2021/03/09 02:57:22;;;;;;;1.00;0.90;;;;;;;-2.58;69.30;100791.97;1836256;78;20997;-83
2021/03/09 02:59:49;;;;;;;1.22;1.12;;;;;;;-2.60;69.32;100796.25;1835920;78;20978;-83
2021/03/09 03:02:18;;;;;;;1.35;1.20;;;;;;;-2.64;69.45;100797.55;1835720;78;21056;-83
2021/03/09 03:04:49;;;;;;;3.20;1.32;;;;;;;-2.66;69.62;100801.83;1835730;78;21354;-80
2021/03/09 03:07:17;;;;;;;2.05;1.27;;;;;;;-2.62;69.62;100809.95;1835764;78;21049;-81
2021/03/09 03:09:46;;;;;;;2.80;1.37;;;;;;;-2.60;69.54;100815.50;1835841;77;21419;-80
2021/03/09 03:12:14;;;;;;;1.35;1.27;;;;;;;-2.61;69.54;100816.34;1835764;78;21096;-79
2021/03/09 03:14:44;;;;;;;2.33;1.37;;;;;;;-2.64;69.51;100825.34;1838474;78;20950;-81
2021/03/09 03:17:14;;;;;;;1.40;1.17;;;;;;;-2.62;69.75;100827.48;1839124;78;21776;-81
2021/03/09 03:19:43;;;;;;;1.42;1.32;;;;;;;-2.61;69.89;100825.33;1834594;78;20930;-80
2021/03/09 03:22:12;;;;;;;1.72;1.20;;;;;;;-2.58;70.00;100831.75;1835640;77;21348;-81
2021/03/09 03:24:40;;;;;;;1.57;1.47;;;;;;;-2.51;70.13;100837.29;1835627;78;21582;-81
2021/03/09 03:27:08;;;;;;;4.12;1.60;;;;;;;-2.40;70.13;100842.80;1835613;76;21021;-82
2021/03/09 03:29:35;;;;;;;3.10;2.05;;;;;;;-2.36;69.85;100842.78;1835505;77;21351;-82
2021/03/09 03:32:04;;;;;;;2.70;1.87;;;;;;;-2.27;69.75;100841.05;1835601;78;21297;-84
2021/03/09 03:34:33;;;;;;;2.98;2.30;;;;;;;-2.22;69.80;100847.89;1835577;77;20918;-85
2021/03/09 03:37:01;;;;;;;1.85;1.67;;;;;;;-2.15;69.71;100845.72;1835603;77;21428;-83
2021/03/09 03:39:29;;;;;;;1.55;1.42;;;;;;;-2.12;69.61;100857.25;1835595;78;21301;-82
2021/03/09 03:41:58;;;;;;;1.47;1.37;;;;;;;-2.09;69.56;100857.66;1823418;76;22374;-83
2021/03/09 03:44:26;;;;;;;1.60;1.50;;;;;;;-2.07;69.49;100854.66;1817518;78;20931;-81
2021/03/09 03:46:54;;;;;;;1.77;1.55;;;;;;;-2.07;69.42;100858.95;1761248;79;21471;-82
2021/03/09 03:49:22;;;;;;;2.30;1.90;;;;;;;-2.09;69.35;100858.55;1817572;78;20922;-80
2021/03/09 03:51:54;;;;;;;2.67;2.20;;;;;;;-2.11;69.53;100861.55;1817529;79;20990;-80
2021/03/09 03:54:28;;;;;;;6.62;1.82;;;;;;;-2.05;69.22;100867.52;1817572;79;21202;-82
2021/03/09 03:57:02;;;;;;;3.40;1.35;;;;;;;-2.04;69.16;100869.23;1817394;78;20935;-84
2021/03/09 03:59:33;;;;;;;1.40;1.30;;;;;;;-2.08;69.46;100870.95;1817812;79;20958;-81
2021/03/09 04:02:04;;;;;;;1.98;1.77;;;;;;;-2.08;69.50;100881.23;1786164;79;21447;-83
2021/03/09 04:04:32;;;;;;;2.87;2.20;;;;;;;-2.06;69.51;100882.52;1817685;79;21361;-81
2021/03/09 04:07:00;;;;;;;3.35;2.60;;;;;;;-2.03;69.63;100879.92;1817811;79;21123;-81
2021/03/09 04:09:30;;;;;;;1.85;1.40;;;;;;;-2.01;69.74;100875.20;1817490;79;21400;-83
2021/03/09 04:11:59;;;;;;;2.47;1.50;;;;;;;-1.96;69.22;100883.73;1817538;78;21026;-82
2021/03/09 04:14:30;;;;;;;1.32;1.22;;;;;;;-1.93;69.22;100890.16;1761267;79;21050;-83
2021/03/09 04:17:00;;;;;;;2.72;2.02;;;;;;;-1.92;68.97;100879.45;1787118;79;20982;-83
2021/03/09 04:19:28;;;;;;;1.72;1.42;;;;;;;-1.90;68.89;100882.87;1786634;79;21485;-81
2021/03/09 04:21:56;;;;;;;1.40;1.20;;;;;;;-1.95;68.69;100879.03;1817310;79;20930;-79
2021/03/09 04:24:25;;;;;;;2.47;1.47;;;;;;;-1.95;68.81;100879.03;1817753;79;21018;-78
2021/03/09 04:26:53;;;;;;;2.33;1.87;;;;;;;-1.93;68.78;100880.32;1787011;79;20907;-78
2021/03/09 04:29:22;;;;;;;2.25;2.00;;;;;;;-1.92;68.63;100882.02;1817596;77;20918;-79
2021/03/09 04:31:53;;;;;;;3.00;1.60;;;;;;;-1.94;68.54;100887.59;1817751;77;21635;-80
2021/03/09 04:34:22;;;;;;;2.08;1.32;;;;;;;-1.95;68.27;100894.89;1786430;79;20982;-76
2021/03/09 04:36:51;;;;;;;3.17;1.67;;;;;;;-1.97;68.20;100892.75;1817422;78;20994;-79
2021/03/09 04:39:20;;;;;;;1.95;1.82;;;;;;;-1.99;68.15;100895.76;1817342;79;21368;-80
2021/03/09 04:41:48;;;;;;;2.22;1.65;;;;;;;-2.00;67.96;100897.48;1817326;78;21013;-81
2021/03/09 04:44:16;;;;;;;1.50;1.37;;;;;;;-2.01;67.90;100896.20;1817495;79;21792;-81
2021/03/09 04:46:46;;;;;;;4.42;1.77;;;;;;;-2.01;67.95;100903.91;1817517;77;21342;-83
2021/03/09 04:49:17;;;;;;;2.92;1.60;;;;;;;-2.02;67.68;100913.34;1786424;79;21472;-85
2021/03/09 04:51:47;;;;;;;2.35;2.15;;;;;;;-2.00;67.72;100921.02;1817481;77;20939;-82
2021/03/09 04:54:15;;;;;;;3.10;2.20;;;;;;;-2.01;67.44;100925.30;1817660;78;21450;-83
2021/03/09 04:56:43;;;;;;;2.60;1.67;;;;;;;-2.01;67.54;100921.89;1817423;79;22082;-81
2021/03/09 04:59:11;;;;;;;1.37;1.27;;;;;;;-1.97;67.50;100927.02;1817381;79;20986;-83
2021/03/09 05:01:39;;;;;;;1.50;1.40;;;;;;;-1.84;67.28;100923.12;1817447;79;20947;-82
2021/03/09 05:04:07;;;;;;;1.70;1.60;;;;;;;-1.50;67.13;100930.23;1817474;77;21030;-81
2021/03/09 05:06:36;;;;;;;4.83;1.98;;;;;;;-0.94;66.19;100927.70;1817386;78;20954;-81
2021/03/09 05:09:04;;;;;;;1.72;1.62;;;;;;;-0.19;65.18;100929.19;1817679;79;22764;-81
2021/03/09 05:11:33;;;;;;;1.57;1.42;;;;;;;0.59;62.88;100939.39;1817426;77;21571;-81
2021/03/09 05:14:02;;;;;;;2.27;1.50;;;;;;;1.18;59.41;100945.00;1817504;78;20947;-78
2021/03/09 05:16:30;;;;;;;1.55;1.45;;;;;;;1.36;58.32;100946.43;1817280;78;21048;-78
2021/03/09 05:18:58;;;;;;;3.00;1.65;;;;;;;1.42;57.79;100943.72;1817457;79;21329;-78
2021/03/09 05:21:26;;;;;;;2.77;1.37;;;;;;;1.46;57.11;100942.79;1817366;79;21659;-81
2021/03/09 05:23:58;;;;;;;3.05;1.65;;;;;;;1.45;56.70;100951.44;1817292;77;21372;-82
2021/03/09 05:26:28;;;;;;;1.40;1.30;;;;;;;1.35;57.11;100952.45;1817459;77;20923;-81
2021/03/09 05:28:57;;;;;;;4.08;1.80;;;;;;;1.37;56.97;100958.01;1817468;78;20927;-82
2021/03/09 05:31:30;;;;;;;2.20;1.55;;;;;;;1.52;56.80;100965.95;1817377;79;20899;-81
2021/03/09 05:33:59;;;;;;;3.27;1.40;;;;;;;1.65;56.16;100975.20;1817416;77;22288;-82
2021/03/09 05:36:34;;;;;;;1.70;1.52;;;;;;;1.94;55.71;100986.76;1817277;79;20959;-80
2021/03/09 05:39:03;;;;;;;2.08;1.95;;;;;;;2.14;54.33;100987.67;1817449;79;20891;-83
2021/03/09 05:41:31;;;;;;;15.83;1.85;;;;;;;2.03;54.20;100996.92;1820313;77;20982;-80
2021/03/09 05:44:02;;;;;;;2.00;1.70;;;;;;;1.77;54.34;101006.89;1802832;77;21049;-83
2021/03/09 05:46:31;;;;;;;2.00;1.37;;;;;;;1.42;54.95;101001.86;1829954;78;22119;-82
2021/03/09 05:48:59;;;;;;;3.95;1.87;;;;;;;1.23;55.98;101013.78;1829842;78;21001;-80
2021/03/09 05:51:32;;;;;;;2.60;1.85;;;;;;;1.20;56.05;101011.67;1826359;77;20942;-80
2021/03/09 05:54:05;;;;;;;1.55;1.45;;;;;;;1.14;56.03;101024.25;1829967;78;20942;-80
2021/03/09 05:56:30;;;;;;;1.62;1.42;;;;;;;1.38;55.59;101023.45;1829462;77;21009;-79
2021/03/09 05:58:58;;;;;;;1.42;1.32;;;;;;;1.81;55.15;101020.18;1829815;78;21420;-81
2021/03/09 06:01:26;;;;;;;1.77;1.55;;;;;;;2.53;53.99;101020.10;1830188;77;20914;-81
2021/03/09 06:03:54;;;;;;;2.75;2.20;;;;;;;3.21;51.97;101025.98;1830586;78;20946;-79
2021/03/09 06:06:22;;;;;;;3.70;1.55;;;;;;;3.78;50.56;101027.64;1803169;78;20934;-79
2021/03/09 06:08:50;;;;;;;5.17;2.10;;;;;;;3.90;49.19;101023.00;1830842;78;21002;-83
2021/03/09 06:11:19;;;;;;;2.00;1.57;;;;;;;3.83;49.10;101025.80;1830530;78;22330;-79
2021/03/09 06:13:47;;;;;;;2.00;1.50;;;;;;;3.85;49.01;101028.76;1829839;77;20969;-79
2021/03/09 06:16:15;;;;;;;2.70;1.80;;;;;;;4.07;48.98;101022.98;1829652;78;20998;-80
2021/03/09 06:18:56;;;;;;;2.58;1.55;;;;;;;4.36;47.72;101023.53;1829753;78;21461;-80
2021/03/09 06:21:26;;;;;;;1.47;1.32;;;;;;;4.68;47.62;101034.73;1829817;77;20898;-83
2021/03/09 06:23:54;;;;;;;3.47;1.67;;;;;;;5.16;47.55;101037.63;1830154;78;21430;-82
2021/03/09 06:26:39;;;;;;;3.62;1.80;;;;;;;5.70;46.16;101047.62;1829968;78;20946;-82
2021/03/09 06:29:12;;;;;;;1.95;1.27;;;;;;;6.20;45.30;101043.80;1830160;78;21017;-83
2021/03/09 06:32:01;;;;;;;1.60;1.50;;;;;;;6.54;44.09;101055.61;1829835;77;20990;-79
2021/03/09 06:34:31;;;;;;;1.82;1.40;;;;;;;6.82;43.39;101048.91;1830007;78;21455;-80
2021/03/09 06:37:16;;;;;;;1.62;1.52;;;;;;;6.90;42.30;101062.13;1829862;78;21371;-79
2021/03/09 06:39:56;;;;;;;1.55;1.45;;;;;;;6.68;41.53;101065.98;1829829;78;20926;-82
2021/03/09 06:42:34;;;;;;;1.95;1.50;;;;;;;6.61;41.10;101061.45;1823945;77;20939;-83
2021/03/09 06:45:14;;;;;;;2.30;1.27;;;;;;;6.50;40.95;101063.14;1817552;79;21794;-82
2021/03/09 06:47:44;;;;;;;3.35;1.67;;;;;;;6.33;41.21;101069.39;1817644;77;20974;-81
2021/03/09 06:50:20;;;;;;;0.82;0.82;;;;;;;6.38;41.48;101073.98;1817735;79;22117;-83
2021/03/09 06:53:00;;;;;;;2.37;2.17;;;;;;;6.52;40.64;101080.03;1817432;79;20974;-82
2021/03/09 06:55:32;;;;;;;3.40;1.50;;;;;;;6.43;40.32;101071.63;1817381;77;21049;-81
2021/03/09 06:58:05;;;;;;;3.37;1.10;;;;;;;6.34;40.56;101071.95;1817276;79;20994;-81
2021/03/09 07:00:33;;;;;;;2.77;1.90;;;;;;;6.26;40.73;101077.03;1817424;78;21018;-82
2021/03/09 07:03:02;;;;;;;2.35;1.40;;;;;;;6.00;40.23;101087.44;1817401;79;21824;-82
2021/03/09 07:05:30;;;;;;;1.15;1.02;;;;;;;5.60;40.68;101090.00;1817340;79;20978;-83
2021/03/09 07:07:58;;;;;;;2.37;1.30;;;;;;;5.34;40.83;101086.91;1817459;79;20899;-80
2021/03/09 07:10:30;;;;;;;2.47;1.62;;;;;;;5.48;41.64;101086.94;1786655;79;21049;-81
2021/03/09 07:12:57;;;;;;;2.67;1.05;;;;;;;5.89;39.60;101084.31;1817727;77;21057;-81
2021/03/09 07:15:26;;;;;;;1.90;1.20;;;;;;;6.36;39.78;101087.54;1817617;78;21366;-82
2021/03/09 07:17:53;;;;;;;2.75;0.95;;;;;;;6.85;38.16;101090.52;1817372;79;20946;-81
2021/03/09 07:20:23;;;;;;;2.58;1.07;;;;;;;7.31;36.94;101089.22;1817406;77;20982;-80
2021/03/09 07:22:54;;;;;;;2.00;1.27;;;;;;;7.78;36.78;101098.25;1817425;77;20934;-82
2021/03/09 07:28:51;;;;;;;0.95;0.88;;;;;;;8.55;33.55;101088.48;1813516;78;22410;-80
2021/03/09 07:31:23;;;;;;;0.95;0.70;;;;;;;8.81;31.95;101103.03;1726217;82;20958;-83
2021/03/09 07:33:52;;;;;;;2.40;1.15;;;;;;;8.98;31.20;101107.94;1754568;81;21389;-82
2021/03/09 07:36:21;;;;;;;3.58;1.20;;;;;;;9.10;30.99;101103.00;1755030;81;20970;-80
2021/03/09 07:38:52;;;;;;;1.10;0.60;;;;;;;9.36;30.57;101105.31;1724474;82;21638;-79
2021/03/09 07:41:20;;;;;;;1.77;0.90;;;;;;;9.41;30.79;101107.28;1745124;81;20938;-80
2021/03/09 07:43:49;;;;;;;1.50;1.00;;;;;;;9.53;30.94;101106.21;1703896;82;21469;-78
2021/03/09 07:46:16;;;;;;;1.05;0.95;;;;;;;9.37;31.15;101114.42;1756296;81;22293;-79
2021/03/09 07:48:44;;;;;;;0.95;0.80;;;;;;;9.11;31.02;101114.31;1702809;82;21041;-81
2021/03/09 07:51:11;;;;;;;1.20;0.70;;;;;;;9.09;29.30;101109.61;1726776;81;21512;-80
2021/03/09 07:53:39;;;;;;;0.75;0.65;;;;;;;8.85;29.52;101110.29;1712081;82;20911;-80
2021/03/09 07:56:13;;;;;;;0.80;0.70;;;;;;;8.68;29.76;101105.80;1673618;83;21055;-80
2021/03/09 07:58:42;;;;;;;0.80;0.70;;;;;;;8.34;30.77;101119.00;1728052;82;22392;-77
2021/03/09 08:01:10;;;;;;;1.47;0.90;;;;;;;7.88;30.81;101119.14;1708297;82;20982;-82
2021/03/09 08:03:42;;;;;;;1.35;0.78;;;;;;;7.56;31.35;101114.34;1751958;81;20963;-79
2021/03/09 08:06:16;;;;;;;0.70;0.70;;;;;;;7.26;32.49;101114.18;1726023;82;20970;-79
2021/03/09 08:08:53;;;;;;;1.40;0.60;;;;;;;7.11;32.25;101116.52;1722650;82;26541;-81
2021/03/09 08:11:26;;;;;;;11.70;1.32;;;;;;;6.81;32.36;101121.52;1756671;81;21381;-79
2021/03/09 08:14:11;;;;;;;2.33;0.90;;;;;;;6.49;32.86;101123.11;1714734;82;21019;-83
2021/03/09 08:16:42;;;;;;;2.50;0.60;;;;;;;6.49;33.69;101123.11;1717730;83;20923;-85
2021/03/09 08:19:26;;;;;;;1.40;0.75;;;;;;;6.64;32.37;101112.14;1749207;81;21047;-78
2021/03/09 08:22:03;;;;;;;1.85;0.47;;;;;;;6.52;32.70;101117.81;1764747;81;21554;-78
2021/03/09 08:24:45;;;;;;;3.12;0.90;;;;;;;6.12;32.81;101126.52;1726179;82;21848;-79
2021/03/09 08:27:32;;;;;;;1.62;1.00;;;;;;;5.99;33.95;101127.83;1747467;81;21575;-79
2021/03/09 08:30:09;;;;;;;;;;;;;;;6.15;34.51;101126.87;1719516;82;21004;-81
2021/03/09 08:32:38;;;;;;;0.85;0.70;;;;;;;6.74;33.49;101116.59;1755050;81;20149;-79
2021/03/09 08:35:20;;;;;;;1.77;1.00;;;;;;;6.85;31.87;101123.11;1720650;82;21042;-80
2021/03/09 08:37:50;;;;;;;1.65;0.95;;;;;;;6.52;32.77;101123.86;1718676;82;22211;-80
2021/03/09 08:40:20;;;;;;;2.35;1.52;;;;;;;6.11;33.44;101124.80;1724095;82;20967;-83
2021/03/09 08:43:04;;;;;;;2.40;1.17;;;;;;;5.77;34.23;101136.29;1722859;82;20951;-83
2021/03/09 08:45:41;;;;;;;2.47;1.55;;;;;;;5.64;34.64;101138.87;1694871;82;20974;-84
2021/03/09 08:48:11;;;;;;;3.25;2.95;;;;;;;5.64;34.44;101137.57;1722117;82;20946;-84
2021/03/09 08:50:47;;;;;;;1.92;1.72;;;;;;;5.94;35.31;101137.09;1755661;81;21046;-83
2021/03/09 08:53:31;;;;;;;2.20;0.72;;;;;;;6.15;34.44;101138.59;1715889;82;21021;-81
2021/03/09 08:56:06;;;;;;;1.57;0.80;;;;;;;5.97;33.03;101146.09;1749035;81;21033;-81
2021/03/09 08:58:35;;;;;;;1.60;0.98;;;;;;;5.80;33.54;101140.11;1726906;82;21014;-83
2021/03/09 09:01:04;;;;;;;1.10;1.00;;;;;;;5.80;34.06;101143.14;1668418;83;21014;-76
2021/03/09 09:03:38;;;;;;;1.15;0.85;;;;;;;5.90;34.17;101147.16;1756704;81;21277;-79
2021/03/09 09:06:07;;;;;;;1.70;1.20;;;;;;;5.92;34.31;101149.27;1720699;82;20976;-79
2021/03/09 09:08:34;;;;;;;2.27;2.10;;;;;;;5.69;33.93;101140.91;1723036;81;20991;-79
2021/03/09 09:11:03;;;;;;;1.12;0.90;;;;;;;5.39;34.74;101140.08;1730668;82;21030;-78
2021/03/09 09:13:33;;;;;;;1.82;0.98;;;;;;;5.09;35.10;101157.42;1726269;82;21424;-77
2021/03/09 09:16:04;;;;;;;2.17;1.27;;;;;;;4.79;35.24;101165.19;1710061;83;21377;-79
2021/03/09 09:18:32;;;;;;;1.47;1.37;;;;;;;4.43;36.74;101167.88;1728476;82;21495;-83
2021/03/09 09:21:00;;;;;;;3.47;1.00;;;;;;;4.22;37.52;101174.44;1725957;82;20974;-83
2021/03/09 09:23:30;;;;;;;2.00;0.98;;;;;;;3.90;36.76;101178.67;1755775;81;20958;-82
2021/03/09 09:26:04;;;;;;;1.95;1.07;;;;;;;3.56;36.71;101182.90;1659176;83;21042;-82
2021/03/09 09:28:36;;;;;;;1.62;1.05;;;;;;;3.22;37.80;101187.51;1727161;82;21242;-82
2021/03/09 09:31:13;;;;;;;1.72;1.40;;;;;;;2.94;39.07;101189.81;1725188;82;21030;-84
2021/03/09 09:33:49;;;;;;;2.10;1.15;;;;;;;2.70;39.65;101196.70;1721640;83;21042;-76
2021/03/09 09:36:20;;;;;;;1.90;1.40;;;;;;;2.53;39.46;101199.17;1717526;82;20974;-85
2021/03/09 09:38:55;;;;;;;1.60;1.50;;;;;;;2.64;40.01;101198.55;1726594;82;20994;-84
2021/03/09 09:41:23;;;;;;;3.95;2.25;;;;;;;3.13;40.57;101185.11;1715449;82;21754;-84
2021/03/09 09:43:52;;;;;;;5.40;2.58;;;;;;;3.79;40.59;101196.22;1753015;81;20974;-84
2021/03/09 09:46:25;;;;;;;3.62;1.32;;;;;;;4.15;39.66;101198.84;1701867;83;21385;-83
2021/03/09 09:48:54;;;;;;;3.30;1.15;;;;;;;4.14;38.18;101195.86;1711663;82;21010;-83
2021/03/09 09:51:25;;;;;;;1.52;1.42;;;;;;;3.84;38.37;101200.86;1729233;82;21031;-82
2021/03/09 09:53:54;;;;;;;1.82;1.50;;;;;;;3.53;39.78;101199.38;1732157;82;21799;-81
2021/03/09 09:56:24;;;;;;;1.62;1.25;;;;;;;3.24;40.99;101199.55;1724672;82;21022;-80
2021/03/09 09:59:00;;;;;;;1.40;1.27;;;;;;;3.16;40.90;101198.87;1755688;81;20987;-82
2021/03/09 10:01:38;;;;;;;1.62;1.52;;;;;;;3.19;40.22;101198.80;1725564;83;20943;-80
2021/03/09 10:04:13;;;;;;;1.32;1.17;;;;;;;3.17;40.27;101189.35;1751454;81;21583;-81
2021/03/09 10:06:51;;;;;;;2.00;1.35;;;;;;;3.21;40.53;101197.48;1734193;82;21775;-80
2021/03/09 10:09:24;;;;;;;1.50;1.07;;;;;;;3.61;39.89;101197.94;1753553;81;21388;-81
2021/03/09 10:12:00;;;;;;;2.98;1.82;;;;;;;4.22;39.15;101190.02;1758731;81;21070;-83
2021/03/09 10:14:36;;;;;;;1.45;1.10;;;;;;;4.96;37.40;101197.22;1719580;82;21156;-84
2021/03/09 10:17:00;;;;;;;3.52;1.98;;;;;;;5.66;37.09;101194.78;1754988;81;20954;-80
2021/03/09 10:19:37;;;;;;;3.60;1.70;;;;;;;5.92;36.22;101203.09;1725507;82;21832;-83
2021/03/09 10:22:17;;;;;;;2.05;1.75;;;;;;;5.88;35.97;101201.48;1755674;81;21010;-82
2021/03/09 10:24:45;;;;;;;3.92;1.72;;;;;;;5.44;36.30;101206.27;1720011;82;21084;-85
2021/03/09 10:27:22;;;;;;;1.95;1.30;;;;;;;4.97;37.70;101198.91;1746684;81;21032;-82
2021/03/09 10:29:57;;;;;;;2.87;2.30;;;;;;;4.44;38.80;101208.52;1718379;82;20959;-80
2021/03/09 10:32:26;;;;;;;2.22;1.45;;;;;;;3.96;40.56;101219.20;1695629;81;21158;-80
2021/03/09 10:34:57;;;;;;;4.92;1.80;;;;;;;3.56;41.71;101219.20;1755871;81;21034;-80
2021/03/09 10:37:39;;;;;;;2.08;1.77;;;;;;;3.25;42.14;101216.82;1725649;82;21018;-79
2021/03/09 10:40:11;;;;;;;3.15;2.15;;;;;;;3.08;41.99;101213.25;1748858;81;21494;-83
2021/03/09 10:42:49;;;;;;;1.55;1.42;;;;;;;3.02;41.20;101213.37;1709373;82;21019;-82
2021/03/09 10:45:26;;;;;;;2.00;1.50;;;;;;;3.07;41.98;101214.16;1715295;82;21220;-82
2021/03/09 10:48:02;;;;;;;2.00;1.12;;;;;;;3.15;41.86;101220.47;1725804;82;21034;-81
2021/03/09 10:50:34;;;;;;;4.08;1.50;;;;;;;3.21;42.54;101220.80;1712060;82;21034;-83
2021/03/09 10:53:02;;;;;;;2.42;1.25;;;;;;;3.24;42.51;101231.94;1727728;82;21062;-81
2021/03/09 10:55:32;;;;;;;3.85;1.90;;;;;;;3.19;42.97;101222.57;1755938;81;21073;-83
2021/03/09 10:58:01;;;;;;;3.72;2.10;;;;;;;3.09;43.24;101218.86;1719645;82;21355;-81
2021/03/09 11:00:29;;;;;;;1.52;1.40;;;;;;;3.04;43.43;101222.41;1750062;81;20974;-82
2021/03/09 11:02:58;;;;;;;2.85;1.40;;;;;;;3.04;42.83;101231.48;1704639;82;21071;-79
2021/03/09 11:05:26;;;;;;;1.52;1.35;;;;;;;2.97;42.63;101236.38;1755836;81;21006;-81
2021/03/09 11:07:54;;;;;;;1.55;1.45;;;;;;;2.80;42.01;101231.07;1707289;82;21042;-83
2021/03/09 11:12:12;;;;;;;3.55;1.32;;;;;;;2.49;43.00;101233.34;1864147;75;22935;-81
2021/03/09 11:14:43;;;;;;;2.85;1.35;;;;;;;2.30;43.84;101229.34;1834177;77;20875;-78
2021/03/09 11:17:11;;;;;;;3.65;1.85;;;;;;;2.22;44.46;101222.97;1836385;77;21228;-83
2021/03/09 11:19:39;;;;;;;2.27;1.60;;;;;;;2.30;44.14;101232.77;1834261;77;21431;-82
2021/03/09 11:22:08;;;;;;;3.15;1.85;;;;;;;2.66;44.04;101222.23;1764278;80;21472;-80
2021/03/09 11:24:36;;;;;;;2.20;2.00;;;;;;;3.05;44.24;101223.69;1835928;77;21417;-82
2021/03/09 11:27:05;;;;;;;1.92;1.75;;;;;;;3.53;43.62;101222.72;1771267;80;21050;-80
2021/03/09 11:29:33;;;;;;;2.65;1.80;;;;;;;3.83;41.72;101228.16;1837436;77;21359;-79
2021/03/09 11:32:01;;;;;;;3.58;1.87;;;;;;;3.89;41.29;101227.98;1842335;77;20999;-78
2021/03/09 11:34:30;;;;;;;4.55;2.10;;;;;;;3.66;42.45;101231.10;1838638;77;21282;-80
2021/03/09 11:36:58;;;;;;;2.65;1.72;;;;;;;3.35;43.44;101221.81;1834556;77;21655;-81
2021/03/09 11:39:25;;;;;;;3.33;1.50;;;;;;;3.13;43.94;101244.70;1835733;77;20938;-76
2021/03/09 11:41:55;;;;;;;2.15;1.52;;;;;;;2.93;43.71;101243.78;1837685;77;21982;-76
2021/03/09 11:44:23;;;;;;;2.85;1.60;;;;;;;2.73;42.89;101250.16;1835398;77;21391;-80
2021/03/09 11:46:52;;;;;;;2.25;2.05;;;;;;;2.57;42.71;101246.14;1841051;77;21505;-82
2021/03/09 11:49:26;;;;;;;2.22;2.02;;;;;;;2.47;42.20;101250.63;1840636;77;21361;-80
2021/03/09 11:51:52;;;;;;;2.52;1.70;;;;;;;2.40;41.58;101248.99;1831737;77;20919;-80
2021/03/09 11:54:20;;;;;;;2.75;1.70;;;;;;;2.34;41.73;101257.73;1846351;77;21636;-79